sensor_id;sensor_type;location;lat;lon;timestamp;P1;durP1;ratioP1;P2;durP2;ratioP2
66751;SDS011;53663;42.676;23.238;2023-02-11T00:01:30;25.67;;;10.25;;
66751;SDS011;53663;42.676;23.238;2023-02-11T00:03:57;21.02;;;9.20;;
66751;SDS011;53663;42.676;23.238;2023-02-11T00:06:24;23.85;;;8.65;;
66751;SDS011;53663;42.676;23.238;2023-02-11T00:08:52;18.58;;;7.68;;
66751;SDS011;53663;42.676;23.238;2023-02-11T00:11:18;15.30;;;7.47;;
66751;SDS011;53663;42.676;23.238;2023-02-11T00:13:48;16.65;;;8.05;;
66751;SDS011;53663;42.676;23.238;2023-02-11T00:16:15;16.95;;;8.00;;
66751;SDS011;53663;42.676;23.238;2023-02-11T00:18:42;11.60;;;6.90;;
66751;SDS011;53663;42.676;23.238;2023-02-11T00:21:18;14.82;;;7.10;;
66751;SDS011;53663;42.676;23.238;2023-02-11T00:23:48;16.30;;;7.28;;
66751;SDS011;53663;42.676;23.238;2023-02-11T00:26:18;13.07;;;7.38;;
66751;SDS011;53663;42.676;23.238;2023-02-11T00:28:46;15.30;;;7.50;;
66751;SDS011;53663;42.676;23.238;2023-02-11T00:31:13;14.95;;;7.43;;
66751;SDS011;53663;42.676;23.238;2023-02-11T00:33:40;14.25;;;6.82;;
66751;SDS011;53663;42.676;23.238;2023-02-11T00:36:07;16.25;;;8.05;;
66751;SDS011;53663;42.676;23.238;2023-02-11T00:38:36;21.02;;;9.80;;
66751;SDS011;53663;42.676;23.238;2023-02-11T00:41:01;22.55;;;10.70;;
66751;SDS011;53663;42.676;23.238;2023-02-11T00:43:27;23.58;;;9.82;;
66751;SDS011;53663;42.676;23.238;2023-02-11T00:45:53;22.85;;;10.02;;
66751;SDS011;53663;42.676;23.238;2023-02-11T00:48:18;21.52;;;9.27;;
66751;SDS011;53663;42.676;23.238;2023-02-11T00:50:44;18.42;;;8.98;;
66751;SDS011;53663;42.676;23.238;2023-02-11T00:53:09;28.80;;;12.05;;
66751;SDS011;53663;42.676;23.238;2023-02-11T00:55:35;17.08;;;8.07;;
66751;SDS011;53663;42.676;23.238;2023-02-11T00:58:01;18.83;;;6.95;;
66751;SDS011;53663;42.676;23.238;2023-02-11T01:00:26;15.77;;;7.35;;
66751;SDS011;53663;42.676;23.238;2023-02-11T01:02:52;13.20;;;6.85;;
66751;SDS011;53663;42.676;23.238;2023-02-11T01:05:18;17.63;;;6.78;;
66751;SDS011;53663;42.676;23.238;2023-02-11T01:07:46;15.93;;;6.95;;
66751;SDS011;53663;42.676;23.238;2023-02-11T01:10:12;17.50;;;7.78;;
66751;SDS011;53663;42.676;23.238;2023-02-11T01:12:38;16.58;;;7.45;;
66751;SDS011;53663;42.676;23.238;2023-02-11T01:15:05;13.48;;;7.47;;
66751;SDS011;53663;42.676;23.238;2023-02-11T01:17:33;21.50;;;9.77;;
66751;SDS011;53663;42.676;23.238;2023-02-11T01:20:01;24.10;;;9.50;;
66751;SDS011;53663;42.676;23.238;2023-02-11T01:22:30;22.45;;;10.15;;
66751;SDS011;53663;42.676;23.238;2023-02-11T01:24:59;25.45;;;10.95;;
66751;SDS011;53663;42.676;23.238;2023-02-11T01:27:25;27.13;;;11.20;;
66751;SDS011;53663;42.676;23.238;2023-02-11T01:29:50;29.52;;;13.32;;
66751;SDS011;53663;42.676;23.238;2023-02-11T01:32:15;34.40;;;13.98;;
66751;SDS011;53663;42.676;23.238;2023-02-11T01:34:41;25.20;;;11.40;;
66751;SDS011;53663;42.676;23.238;2023-02-11T01:37:06;21.48;;;10.00;;
66751;SDS011;53663;42.676;23.238;2023-02-11T01:39:33;22.67;;;10.10;;
66751;SDS011;53663;42.676;23.238;2023-02-11T01:41:59;20.33;;;10.32;;
66751;SDS011;53663;42.676;23.238;2023-02-11T01:44:29;26.00;;;9.48;;
66751;SDS011;53663;42.676;23.238;2023-02-11T01:47:00;18.77;;;8.45;;
66751;SDS011;53663;42.676;23.238;2023-02-11T01:49:29;24.02;;;8.82;;
66751;SDS011;53663;42.676;23.238;2023-02-11T01:52:04;14.63;;;7.65;;
66751;SDS011;53663;42.676;23.238;2023-02-11T01:54:41;20.70;;;8.23;;
66751;SDS011;53663;42.676;23.238;2023-02-11T01:57:31;14.88;;;7.32;;
66751;SDS011;53663;42.676;23.238;2023-02-11T02:05:18;19.10;;;8.50;;
66751;SDS011;53663;42.676;23.238;2023-02-11T02:10:40;17.35;;;6.88;;
66751;SDS011;53663;42.676;23.238;2023-02-11T02:13:08;17.98;;;7.57;;
66751;SDS011;53663;42.676;23.238;2023-02-11T02:15:38;17.65;;;8.48;;
66751;SDS011;53663;42.676;23.238;2023-02-11T02:24:02;15.45;;;7.47;;
66751;SDS011;53663;42.676;23.238;2023-02-11T02:34:52;18.55;;;7.38;;
66751;SDS011;53663;42.676;23.238;2023-02-11T02:37:45;14.57;;;8.23;;
66751;SDS011;53663;42.676;23.238;2023-02-11T02:43:20;19.13;;;7.70;;
66751;SDS011;53663;42.676;23.238;2023-02-11T02:45:47;18.13;;;7.25;;
66751;SDS011;53663;42.676;23.238;2023-02-11T02:51:13;17.48;;;7.88;;
66751;SDS011;53663;42.676;23.238;2023-02-11T02:54:43;18.70;;;8.00;;
66751;SDS011;53663;42.676;23.238;2023-02-11T02:59:22;16.63;;;8.20;;
66751;SDS011;53663;42.676;23.238;2023-02-11T03:01:56;16.10;;;7.68;;
66751;SDS011;53663;42.676;23.238;2023-02-11T03:04:36;17.27;;;7.80;;
66751;SDS011;53663;42.676;23.238;2023-02-11T03:07:33;16.20;;;6.93;;
66751;SDS011;53663;42.676;23.238;2023-02-11T03:12:49;21.02;;;8.07;;
66751;SDS011;53663;42.676;23.238;2023-02-11T03:15:17;17.30;;;7.63;;
66751;SDS011;53663;42.676;23.238;2023-02-11T03:17:46;22.10;;;8.27;;
66751;SDS011;53663;42.676;23.238;2023-02-11T03:20:15;23.20;;;8.48;;
66751;SDS011;53663;42.676;23.238;2023-02-11T03:22:57;22.15;;;8.68;;
66751;SDS011;53663;42.676;23.238;2023-02-11T03:25:29;20.33;;;9.00;;
66751;SDS011;53663;42.676;23.238;2023-02-11T03:28:13;17.98;;;8.48;;
66751;SDS011;53663;42.676;23.238;2023-02-11T03:30:48;17.95;;;8.48;;
66751;SDS011;53663;42.676;23.238;2023-02-11T03:33:24;21.67;;;8.50;;
66751;SDS011;53663;42.676;23.238;2023-02-11T03:35:54;15.88;;;7.57;;
66751;SDS011;53663;42.676;23.238;2023-02-11T03:38:25;19.15;;;8.15;;
66751;SDS011;53663;42.676;23.238;2023-02-11T03:40:55;16.25;;;7.43;;
66751;SDS011;53663;42.676;23.238;2023-02-11T03:43:33;15.85;;;7.78;;
66751;SDS011;53663;42.676;23.238;2023-02-11T03:50:57;13.90;;;7.00;;
66751;SDS011;53663;42.676;23.238;2023-02-11T03:53:25;18.25;;;7.82;;
66751;SDS011;53663;42.676;23.238;2023-02-11T03:55:51;18.73;;;8.32;;
66751;SDS011;53663;42.676;23.238;2023-02-11T03:58:19;24.90;;;10.10;;
66751;SDS011;53663;42.676;23.238;2023-02-11T04:00:45;20.67;;;9.07;;
66751;SDS011;53663;42.676;23.238;2023-02-11T04:03:11;23.98;;;9.05;;
66751;SDS011;53663;42.676;23.238;2023-02-11T04:05:36;22.42;;;9.25;;
66751;SDS011;53663;42.676;23.238;2023-02-11T04:08:02;23.27;;;10.82;;
66751;SDS011;53663;42.676;23.238;2023-02-11T04:10:29;20.40;;;9.32;;
66751;SDS011;53663;42.676;23.238;2023-02-11T04:12:54;21.02;;;9.18;;
66751;SDS011;53663;42.676;23.238;2023-02-11T04:15:21;19.33;;;8.02;;
66751;SDS011;53663;42.676;23.238;2023-02-11T04:17:47;20.13;;;9.25;;
66751;SDS011;53663;42.676;23.238;2023-02-11T04:20:13;13.73;;;7.47;;
66751;SDS011;53663;42.676;23.238;2023-02-11T04:22:38;15.20;;;7.82;;
66751;SDS011;53663;42.676;23.238;2023-02-11T04:25:04;15.93;;;7.97;;
66751;SDS011;53663;42.676;23.238;2023-02-11T04:27:30;15.13;;;7.25;;
66751;SDS011;53663;42.676;23.238;2023-02-11T04:29:56;15.10;;;7.85;;
66751;SDS011;53663;42.676;23.238;2023-02-11T04:32:22;15.00;;;7.80;;
66751;SDS011;53663;42.676;23.238;2023-02-11T04:34:47;16.55;;;8.20;;
66751;SDS011;53663;42.676;23.238;2023-02-11T04:37:13;17.52;;;7.38;;
66751;SDS011;53663;42.676;23.238;2023-02-11T04:39:39;16.27;;;8.18;;
66751;SDS011;53663;42.676;23.238;2023-02-11T04:42:04;16.52;;;7.97;;
66751;SDS011;53663;42.676;23.238;2023-02-11T04:44:30;17.00;;;7.95;;
66751;SDS011;53663;42.676;23.238;2023-02-11T04:46:56;28.88;;;11.25;;
66751;SDS011;53663;42.676;23.238;2023-02-11T04:49:21;32.38;;;12.20;;
66751;SDS011;53663;42.676;23.238;2023-02-11T04:51:47;25.50;;;10.95;;
66751;SDS011;53663;42.676;23.238;2023-02-11T04:54:12;20.23;;;9.52;;
66751;SDS011;53663;42.676;23.238;2023-02-11T04:56:38;18.90;;;8.35;;
66751;SDS011;53663;42.676;23.238;2023-02-11T04:59:04;18.35;;;7.97;;
66751;SDS011;53663;42.676;23.238;2023-02-11T05:01:30;17.45;;;7.47;;
66751;SDS011;53663;42.676;23.238;2023-02-11T05:03:56;19.92;;;8.05;;
66751;SDS011;53663;42.676;23.238;2023-02-11T05:06:22;22.13;;;8.57;;
66751;SDS011;53663;42.676;23.238;2023-02-11T05:08:48;28.90;;;9.73;;
66751;SDS011;53663;42.676;23.238;2023-02-11T05:11:15;17.67;;;9.13;;
66751;SDS011;53663;42.676;23.238;2023-02-11T05:13:42;18.67;;;8.50;;
66751;SDS011;53663;42.676;23.238;2023-02-11T05:16:10;16.52;;;8.50;;
66751;SDS011;53663;42.676;23.238;2023-02-11T05:18:36;15.77;;;7.95;;
66751;SDS011;53663;42.676;23.238;2023-02-11T05:21:06;18.30;;;8.20;;
66751;SDS011;53663;42.676;23.238;2023-02-11T05:23:37;18.27;;;8.65;;
66751;SDS011;53663;42.676;23.238;2023-02-11T05:26:03;16.25;;;8.23;;
66751;SDS011;53663;42.676;23.238;2023-02-11T05:28:29;18.83;;;7.82;;
66751;SDS011;53663;42.676;23.238;2023-02-11T05:30:55;16.70;;;8.35;;
66751;SDS011;53663;42.676;23.238;2023-02-11T05:33:21;17.05;;;8.60;;
66751;SDS011;53663;42.676;23.238;2023-02-11T05:35:46;20.55;;;9.68;;
66751;SDS011;53663;42.676;23.238;2023-02-11T05:38:12;24.20;;;10.25;;
66751;SDS011;53663;42.676;23.238;2023-02-11T05:40:38;24.58;;;10.65;;
66751;SDS011;53663;42.676;23.238;2023-02-11T05:43:03;21.38;;;9.50;;
66751;SDS011;53663;42.676;23.238;2023-02-11T05:45:29;23.45;;;9.27;;
66751;SDS011;53663;42.676;23.238;2023-02-11T05:47:54;22.02;;;9.38;;
66751;SDS011;53663;42.676;23.238;2023-02-11T05:50:20;25.02;;;9.52;;
66751;SDS011;53663;42.676;23.238;2023-02-11T05:52:45;27.17;;;11.20;;
66751;SDS011;53663;42.676;23.238;2023-02-11T05:55:11;26.85;;;11.85;;
66751;SDS011;53663;42.676;23.238;2023-02-11T05:57:36;27.95;;;11.77;;
66751;SDS011;53663;42.676;23.238;2023-02-11T06:00:02;23.05;;;10.55;;
66751;SDS011;53663;42.676;23.238;2023-02-11T06:02:37;26.10;;;10.52;;
66751;SDS011;53663;42.676;23.238;2023-02-11T06:05:03;19.08;;;9.27;;
66751;SDS011;53663;42.676;23.238;2023-02-11T06:07:29;24.25;;;10.50;;
66751;SDS011;53663;42.676;23.238;2023-02-11T06:09:54;18.20;;;8.57;;
66751;SDS011;53663;42.676;23.238;2023-02-11T06:12:20;19.33;;;10.02;;
66751;SDS011;53663;42.676;23.238;2023-02-11T06:14:45;25.13;;;9.27;;
66751;SDS011;53663;42.676;23.238;2023-02-11T06:17:11;18.80;;;9.43;;
66751;SDS011;53663;42.676;23.238;2023-02-11T06:19:36;21.05;;;11.20;;
66751;SDS011;53663;42.676;23.238;2023-02-11T06:22:02;22.75;;;10.25;;
66751;SDS011;53663;42.676;23.238;2023-02-11T06:24:27;25.70;;;10.45;;
66751;SDS011;53663;42.676;23.238;2023-02-11T06:26:53;20.67;;;9.13;;
66751;SDS011;53663;42.676;23.238;2023-02-11T06:29:18;16.30;;;8.25;;
66751;SDS011;53663;42.676;23.238;2023-02-11T06:31:44;19.13;;;8.50;;
66751;SDS011;53663;42.676;23.238;2023-02-11T06:34:09;20.83;;;8.55;;
66751;SDS011;53663;42.676;23.238;2023-02-11T06:36:36;21.77;;;9.32;;
66751;SDS011;53663;42.676;23.238;2023-02-11T06:39:03;20.48;;;8.77;;
66751;SDS011;53663;42.676;23.238;2023-02-11T06:41:29;22.75;;;9.13;;
66751;SDS011;53663;42.676;23.238;2023-02-11T06:43:55;20.58;;;10.07;;
66751;SDS011;53663;42.676;23.238;2023-02-11T06:46:20;18.88;;;9.23;;
66751;SDS011;53663;42.676;23.238;2023-02-11T06:48:46;17.10;;;9.00;;
66751;SDS011;53663;42.676;23.238;2023-02-11T06:51:12;19.92;;;9.68;;
66751;SDS011;53663;42.676;23.238;2023-02-11T06:53:39;16.77;;;8.23;;
66751;SDS011;53663;42.676;23.238;2023-02-11T06:56:08;19.20;;;8.98;;
66751;SDS011;53663;42.676;23.238;2023-02-11T06:58:35;20.30;;;9.70;;
66751;SDS011;53663;42.676;23.238;2023-02-11T07:01:05;19.10;;;9.60;;
66751;SDS011;53663;42.676;23.238;2023-02-11T07:03:40;19.38;;;9.20;;
66751;SDS011;53663;42.676;23.238;2023-02-11T07:06:09;19.50;;;9.45;;
66751;SDS011;53663;42.676;23.238;2023-02-11T07:08:37;19.63;;;10.30;;
66751;SDS011;53663;42.676;23.238;2023-02-11T07:11:16;27.08;;;9.85;;
66751;SDS011;53663;42.676;23.238;2023-02-11T07:13:45;20.05;;;9.93;;
66751;SDS011;53663;42.676;23.238;2023-02-11T07:16:12;20.60;;;9.57;;
66751;SDS011;53663;42.676;23.238;2023-02-11T07:18:39;21.95;;;10.43;;
66751;SDS011;53663;42.676;23.238;2023-02-11T07:21:06;22.58;;;10.35;;
66751;SDS011;53663;42.676;23.238;2023-02-11T07:23:33;32.72;;;14.00;;
66751;SDS011;53663;42.676;23.238;2023-02-11T07:26:02;25.23;;;11.48;;
66751;SDS011;53663;42.676;23.238;2023-02-11T07:28:29;17.50;;;9.48;;
66751;SDS011;53663;42.676;23.238;2023-02-11T07:30:54;20.88;;;10.07;;
66751;SDS011;53663;42.676;23.238;2023-02-11T07:33:20;21.75;;;9.38;;
66751;SDS011;53663;42.676;23.238;2023-02-11T07:35:45;18.83;;;9.35;;
66751;SDS011;53663;42.676;23.238;2023-02-11T07:38:11;20.10;;;9.73;;
66751;SDS011;53663;42.676;23.238;2023-02-11T07:40:37;18.58;;;9.43;;
66751;SDS011;53663;42.676;23.238;2023-02-11T07:43:03;20.77;;;8.73;;
66751;SDS011;53663;42.676;23.238;2023-02-11T07:45:29;22.65;;;9.57;;
66751;SDS011;53663;42.676;23.238;2023-02-11T07:47:54;17.02;;;8.30;;
66751;SDS011;53663;42.676;23.238;2023-02-11T07:50:20;16.45;;;8.35;;
66751;SDS011;53663;42.676;23.238;2023-02-11T07:52:45;17.25;;;9.48;;
66751;SDS011;53663;42.676;23.238;2023-02-11T07:55:11;14.40;;;7.90;;
66751;SDS011;53663;42.676;23.238;2023-02-11T07:57:36;25.38;;;8.95;;
66751;SDS011;53663;42.676;23.238;2023-02-11T08:00:02;20.38;;;9.68;;
66751;SDS011;53663;42.676;23.238;2023-02-11T08:02:35;19.10;;;9.77;;
66751;SDS011;53663;42.676;23.238;2023-02-11T08:05:01;19.08;;;10.55;;
66751;SDS011;53663;42.676;23.238;2023-02-11T08:07:27;22.15;;;9.88;;
66751;SDS011;53663;42.676;23.238;2023-02-11T08:09:53;21.65;;;10.70;;
66751;SDS011;53663;42.676;23.238;2023-02-11T08:12:19;15.98;;;8.77;;
66751;SDS011;53663;42.676;23.238;2023-02-11T08:14:45;16.45;;;8.48;;
66751;SDS011;53663;42.676;23.238;2023-02-11T08:17:10;18.60;;;9.85;;
66751;SDS011;53663;42.676;23.238;2023-02-11T08:19:37;22.20;;;9.20;;
66751;SDS011;53663;42.676;23.238;2023-02-11T08:22:03;24.85;;;10.43;;
66751;SDS011;53663;42.676;23.238;2023-02-11T08:24:28;17.67;;;10.10;;
66751;SDS011;53663;42.676;23.238;2023-02-11T08:26:54;24.52;;;10.80;;
66751;SDS011;53663;42.676;23.238;2023-02-11T08:29:19;28.00;;;12.60;;
66751;SDS011;53663;42.676;23.238;2023-02-11T08:31:47;24.50;;;12.88;;
66751;SDS011;53663;42.676;23.238;2023-02-11T08:34:13;22.20;;;11.25;;
66751;SDS011;53663;42.676;23.238;2023-02-11T08:36:42;24.00;;;11.98;;
66751;SDS011;53663;42.676;23.238;2023-02-11T08:39:19;21.88;;;11.73;;
66751;SDS011;53663;42.676;23.238;2023-02-11T08:41:50;20.63;;;11.45;;
66751;SDS011;53663;42.676;23.238;2023-02-11T08:44:17;21.05;;;10.70;;
66751;SDS011;53663;42.676;23.238;2023-02-11T08:46:44;20.67;;;11.13;;
66751;SDS011;53663;42.676;23.238;2023-02-11T08:49:10;18.67;;;10.65;;
66751;SDS011;53663;42.676;23.238;2023-02-11T08:51:36;26.95;;;10.88;;
66751;SDS011;53663;42.676;23.238;2023-02-11T08:54:01;20.83;;;11.32;;
66751;SDS011;53663;42.676;23.238;2023-02-11T08:56:27;20.83;;;10.05;;
66751;SDS011;53663;42.676;23.238;2023-02-11T08:58:55;16.88;;;9.57;;
66751;SDS011;53663;42.676;23.238;2023-02-11T09:01:22;16.98;;;8.73;;
66751;SDS011;53663;42.676;23.238;2023-02-11T09:03:50;18.33;;;8.77;;
66751;SDS011;53663;42.676;23.238;2023-02-11T09:06:16;17.58;;;9.75;;
66751;SDS011;53663;42.676;23.238;2023-02-11T09:08:43;31.20;;;11.63;;
66751;SDS011;53663;42.676;23.238;2023-02-11T09:11:11;21.35;;;10.38;;
66751;SDS011;53663;42.676;23.238;2023-02-11T09:13:36;31.02;;;11.43;;
66751;SDS011;53663;42.676;23.238;2023-02-11T09:16:04;21.05;;;10.98;;
66751;SDS011;53663;42.676;23.238;2023-02-11T09:18:30;18.70;;;10.10;;
66751;SDS011;53663;42.676;23.238;2023-02-11T09:21:03;19.85;;;10.13;;
66751;SDS011;53663;42.676;23.238;2023-02-11T09:23:31;23.02;;;13.45;;
66751;SDS011;53663;42.676;23.238;2023-02-11T09:25:59;21.75;;;10.80;;
66751;SDS011;53663;42.676;23.238;2023-02-11T09:28:29;25.33;;;12.43;;
66751;SDS011;53663;42.676;23.238;2023-02-11T09:30:54;20.25;;;10.68;;
66751;SDS011;53663;42.676;23.238;2023-02-11T09:33:20;18.30;;;9.88;;
66751;SDS011;53663;42.676;23.238;2023-02-11T09:35:45;20.83;;;10.45;;
66751;SDS011;53663;42.676;23.238;2023-02-11T09:38:11;19.85;;;11.00;;
66751;SDS011;53663;42.676;23.238;2023-02-11T09:40:40;23.10;;;9.98;;
66751;SDS011;53663;42.676;23.238;2023-02-11T09:43:50;18.65;;;9.18;;
66751;SDS011;53663;42.676;23.238;2023-02-11T09:46:00;18.70;;;9.13;;
66751;SDS011;53663;42.676;23.238;2023-02-11T09:48:26;17.35;;;9.55;;
66751;SDS011;53663;42.676;23.238;2023-02-11T09:50:55;18.73;;;9.30;;
66751;SDS011;53663;42.676;23.238;2023-02-11T09:53:41;16.45;;;9.70;;
66751;SDS011;53663;42.676;23.238;2023-02-11T09:56:11;18.58;;;8.23;;
66751;SDS011;53663;42.676;23.238;2023-02-11T09:58:40;19.65;;;9.02;;
66751;SDS011;53663;42.676;23.238;2023-02-11T10:01:12;17.83;;;10.05;;
66751;SDS011;53663;42.676;23.238;2023-02-11T10:06:40;19.17;;;8.80;;
66751;SDS011;53663;42.676;23.238;2023-02-11T10:23:54;16.13;;;8.45;;
66751;SDS011;53663;42.676;23.238;2023-02-11T10:26:25;19.77;;;8.27;;
66751;SDS011;53663;42.676;23.238;2023-02-11T10:28:55;20.08;;;7.97;;
66751;SDS011;53663;42.676;23.238;2023-02-11T10:31:27;17.35;;;8.20;;
66751;SDS011;53663;42.676;23.238;2023-02-11T10:34:05;15.48;;;6.95;;
66751;SDS011;53663;42.676;23.238;2023-02-11T10:36:34;16.77;;;8.10;;
66751;SDS011;53663;42.676;23.238;2023-02-11T10:42:00;12.93;;;6.70;;
66751;SDS011;53663;42.676;23.238;2023-02-11T10:44:31;14.40;;;6.93;;
66751;SDS011;53663;42.676;23.238;2023-02-11T10:47:13;16.85;;;8.40;;
66751;SDS011;53663;42.676;23.238;2023-02-11T10:49:44;23.88;;;9.02;;
66751;SDS011;53663;42.676;23.238;2023-02-11T10:52:12;17.33;;;8.88;;
66751;SDS011;53663;42.676;23.238;2023-02-11T10:54:38;15.73;;;8.05;;
66751;SDS011;53663;42.676;23.238;2023-02-11T10:57:04;17.08;;;7.47;;
66751;SDS011;53663;42.676;23.238;2023-02-11T10:59:35;13.85;;;7.53;;
66751;SDS011;53663;42.676;23.238;2023-02-11T11:04:56;12.68;;;7.55;;
66751;SDS011;53663;42.676;23.238;2023-02-11T11:07:24;19.80;;;8.60;;
66751;SDS011;53663;42.676;23.238;2023-02-11T11:09:55;14.93;;;7.63;;
66751;SDS011;53663;42.676;23.238;2023-02-11T11:17:33;12.50;;;7.07;;
66751;SDS011;53663;42.676;23.238;2023-02-11T11:23:06;15.25;;;7.70;;
66751;SDS011;53663;42.676;23.238;2023-02-11T11:25:33;12.60;;;6.78;;
66751;SDS011;53663;42.676;23.238;2023-02-11T11:28:03;13.97;;;7.90;;
66751;SDS011;53663;42.676;23.238;2023-02-11T11:30:33;13.43;;;7.68;;
66751;SDS011;53663;42.676;23.238;2023-02-11T11:33:05;14.75;;;8.10;;
66751;SDS011;53663;42.676;23.238;2023-02-11T11:35:51;15.63;;;7.63;;
66751;SDS011;53663;42.676;23.238;2023-02-11T11:38:26;12.90;;;7.00;;
66751;SDS011;53663;42.676;23.238;2023-02-11T11:43:56;22.25;;;7.78;;
66751;SDS011;53663;42.676;23.238;2023-02-11T11:46:26;12.43;;;7.63;;
66751;SDS011;53663;42.676;23.238;2023-02-11T11:49:02;14.85;;;7.78;;
66751;SDS011;53663;42.676;23.238;2023-02-11T11:51:37;15.13;;;6.97;;
66751;SDS011;53663;42.676;23.238;2023-02-11T11:54:07;15.10;;;6.97;;
66751;SDS011;53663;42.676;23.238;2023-02-11T11:56:38;18.55;;;7.32;;
66751;SDS011;53663;42.676;23.238;2023-02-11T11:59:10;21.83;;;7.32;;
66751;SDS011;53663;42.676;23.238;2023-02-11T12:01:50;13.25;;;6.38;;
66751;SDS011;53663;42.676;23.238;2023-02-11T12:07:35;17.17;;;7.85;;
66751;SDS011;53663;42.676;23.238;2023-02-11T12:32:43;13.13;;;6.85;;
66751;SDS011;53663;42.676;23.238;2023-02-11T12:40:26;14.75;;;7.40;;
66751;SDS011;53663;42.676;23.238;2023-02-11T12:56:15;11.63;;;6.45;;
66751;SDS011;53663;42.676;23.238;2023-02-11T12:58:46;12.07;;;7.15;;
66751;SDS011;53663;42.676;23.238;2023-02-11T13:03:50;14.93;;;7.25;;
66751;SDS011;53663;42.676;23.238;2023-02-11T13:06:21;14.73;;;7.10;;
66751;SDS011;53663;42.676;23.238;2023-02-11T13:08:54;13.65;;;6.85;;
66751;SDS011;53663;42.676;23.238;2023-02-11T13:11:36;13.80;;;6.60;;
66751;SDS011;53663;42.676;23.238;2023-02-11T13:14:11;16.33;;;7.25;;
66751;SDS011;53663;42.676;23.238;2023-02-11T13:16:46;16.13;;;6.82;;
66751;SDS011;53663;42.676;23.238;2023-02-11T13:19:31;13.18;;;7.43;;
66751;SDS011;53663;42.676;23.238;2023-02-11T13:22:12;19.83;;;7.45;;
66751;SDS011;53663;42.676;23.238;2023-02-11T13:37:53;18.45;;;8.25;;
66751;SDS011;53663;42.676;23.238;2023-02-11T13:40:21;14.00;;;6.93;;
66751;SDS011;53663;42.676;23.238;2023-02-11T13:42:59;15.77;;;7.20;;
66751;SDS011;53663;42.676;23.238;2023-02-11T13:45:29;11.85;;;6.88;;
66751;SDS011;53663;42.676;23.238;2023-02-11T13:48:03;14.93;;;7.60;;
66751;SDS011;53663;42.676;23.238;2023-02-11T13:50:31;12.68;;;7.15;;
66751;SDS011;53663;42.676;23.238;2023-02-11T13:53:10;14.90;;;6.75;;
66751;SDS011;53663;42.676;23.238;2023-02-11T13:55:36;13.23;;;6.78;;
66751;SDS011;53663;42.676;23.238;2023-02-11T14:09:31;18.23;;;8.55;;
66751;SDS011;53663;42.676;23.238;2023-02-11T14:15:16;13.25;;;7.72;;
66751;SDS011;53663;42.676;23.238;2023-02-11T14:17:43;14.75;;;8.40;;
66751;SDS011;53663;42.676;23.238;2023-02-11T14:22:58;14.50;;;7.70;;
66751;SDS011;53663;42.676;23.238;2023-02-11T14:25:24;19.15;;;7.50;;
66751;SDS011;53663;42.676;23.238;2023-02-11T14:27:52;19.20;;;7.95;;
66751;SDS011;53663;42.676;23.238;2023-02-11T14:35:50;20.40;;;8.30;;
66751;SDS011;53663;42.676;23.238;2023-02-11T14:38:29;15.27;;;7.78;;
66751;SDS011;53663;42.676;23.238;2023-02-11T14:44:00;17.88;;;8.65;;
66751;SDS011;53663;42.676;23.238;2023-02-11T14:46:30;18.42;;;8.80;;
66751;SDS011;53663;42.676;23.238;2023-02-11T14:48:57;16.17;;;8.77;;
66751;SDS011;53663;42.676;23.238;2023-02-11T14:53:53;15.20;;;8.52;;
66751;SDS011;53663;42.676;23.238;2023-02-11T14:56:24;20.23;;;9.63;;
66751;SDS011;53663;42.676;23.238;2023-02-11T14:58:53;29.85;;;12.73;;
66751;SDS011;53663;42.676;23.238;2023-02-11T15:04:03;22.48;;;10.55;;
66751;SDS011;53663;42.676;23.238;2023-02-11T15:06:30;21.15;;;9.73;;
66751;SDS011;53663;42.676;23.238;2023-02-11T15:09:02;23.10;;;10.60;;
66751;SDS011;53663;42.676;23.238;2023-02-11T15:11:31;26.75;;;13.25;;
66751;SDS011;53663;42.676;23.238;2023-02-11T15:14:18;19.67;;;10.27;;
66751;SDS011;53663;42.676;23.238;2023-02-11T15:16:45;17.52;;;9.20;;
66751;SDS011;53663;42.676;23.238;2023-02-11T15:21:55;17.00;;;9.27;;
66751;SDS011;53663;42.676;23.238;2023-02-11T15:24:23;16.20;;;8.43;;
66751;SDS011;53663;42.676;23.238;2023-02-11T15:29:46;23.67;;;10.98;;
66751;SDS011;53663;42.676;23.238;2023-02-11T15:32:16;31.05;;;11.23;;
66751;SDS011;53663;42.676;23.238;2023-02-11T15:34:46;21.98;;;11.45;;
66751;SDS011;53663;42.676;23.238;2023-02-11T15:37:18;21.60;;;10.57;;
66751;SDS011;53663;42.676;23.238;2023-02-11T15:39:51;28.80;;;13.60;;
66751;SDS011;53663;42.676;23.238;2023-02-11T15:42:18;49.92;;;22.20;;
66751;SDS011;53663;42.676;23.238;2023-02-11T15:44:48;50.88;;;23.40;;
66751;SDS011;53663;42.676;23.238;2023-02-11T15:47:19;30.35;;;13.70;;
66751;SDS011;53663;42.676;23.238;2023-02-11T15:49:46;18.10;;;10.07;;
66751;SDS011;53663;42.676;23.238;2023-02-11T15:52:12;17.80;;;8.70;;
66751;SDS011;53663;42.676;23.238;2023-02-11T15:54:45;19.55;;;8.20;;
66751;SDS011;53663;42.676;23.238;2023-02-11T15:57:12;17.52;;;8.10;;
66751;SDS011;53663;42.676;23.238;2023-02-11T15:59:48;17.83;;;7.90;;
66751;SDS011;53663;42.676;23.238;2023-02-11T16:02:20;14.85;;;7.88;;
66751;SDS011;53663;42.676;23.238;2023-02-11T16:04:59;14.77;;;7.88;;
66751;SDS011;53663;42.676;23.238;2023-02-11T16:07:38;13.90;;;7.57;;
66751;SDS011;53663;42.676;23.238;2023-02-11T16:12:49;18.10;;;8.05;;
66751;SDS011;53663;42.676;23.238;2023-02-11T16:18:24;14.40;;;7.80;;
66751;SDS011;53663;42.676;23.238;2023-02-11T16:20:51;18.48;;;9.05;;
66751;SDS011;53663;42.676;23.238;2023-02-11T16:23:22;16.88;;;9.20;;
66751;SDS011;53663;42.676;23.238;2023-02-11T16:25:54;21.60;;;10.75;;
66751;SDS011;53663;42.676;23.238;2023-02-11T16:28:26;37.08;;;15.60;;
66751;SDS011;53663;42.676;23.238;2023-02-11T16:30:53;36.65;;;15.55;;
66751;SDS011;53663;42.676;23.238;2023-02-11T16:33:20;28.88;;;13.68;;
66751;SDS011;53663;42.676;23.238;2023-02-11T16:35:46;22.98;;;11.50;;
66751;SDS011;53663;42.676;23.238;2023-02-11T16:38:13;26.48;;;12.60;;
66751;SDS011;53663;42.676;23.238;2023-02-11T16:40:39;23.77;;;11.55;;
66751;SDS011;53663;42.676;23.238;2023-02-11T16:43:06;21.88;;;11.05;;
66751;SDS011;53663;42.676;23.238;2023-02-11T16:45:33;19.55;;;10.30;;
66751;SDS011;53663;42.676;23.238;2023-02-11T16:48:01;22.15;;;10.38;;
66751;SDS011;53663;42.676;23.238;2023-02-11T16:50:27;21.40;;;10.77;;
66751;SDS011;53663;42.676;23.238;2023-02-11T16:52:54;22.95;;;10.77;;
66751;SDS011;53663;42.676;23.238;2023-02-11T16:55:19;22.55;;;10.10;;
66751;SDS011;53663;42.676;23.238;2023-02-11T16:57:45;21.40;;;10.35;;
66751;SDS011;53663;42.676;23.238;2023-02-11T17:00:10;27.25;;;11.65;;
66751;SDS011;53663;42.676;23.238;2023-02-11T17:02:40;37.83;;;17.92;;
66751;SDS011;53663;42.676;23.238;2023-02-11T17:05:07;41.38;;;17.85;;
66751;SDS011;53663;42.676;23.238;2023-02-11T17:07:42;29.20;;;14.20;;
66751;SDS011;53663;42.676;23.238;2023-02-11T17:10:14;38.90;;;15.05;;
66751;SDS011;53663;42.676;23.238;2023-02-11T17:12:42;42.03;;;17.50;;
66751;SDS011;53663;42.676;23.238;2023-02-11T17:15:08;51.17;;;20.45;;
66751;SDS011;53663;42.676;23.238;2023-02-11T17:17:33;48.35;;;19.65;;
66751;SDS011;53663;42.676;23.238;2023-02-11T17:19:59;53.10;;;19.60;;
66751;SDS011;53663;42.676;23.238;2023-02-11T17:22:25;37.83;;;15.43;;
66751;SDS011;53663;42.676;23.238;2023-02-11T17:24:50;34.42;;;14.05;;